sensor_id;sensor_type;location;lat;lon;timestamp;pressure;altitude;pressure_sealevel;temperature;humidity
19827;BME280;10074;52.018;4.726;2023-05-25T00:02:09;46169.13;;;-144.79;100.00
19827;BME280;10074;52.018;4.726;2023-05-25T00:07:10;46157.09;;;-144.79;100.00
19827;BME280;10074;52.018;4.726;2023-05-25T00:12:11;46175.16;;;-144.79;100.00
19827;BME280;10074;52.018;4.726;2023-05-25T00:17:11;46159.09;;;-144.79;100.00
19827;BME280;10074;52.018;4.726;2023-05-25T00:22:13;46173.13;;;-144.79;100.00
19827;BME280;10074;52.018;4.726;2023-05-25T00:27:13;46175.16;;;-144.79;100.00
19827;BME280;10074;52.018;4.726;2023-05-25T00:32:13;46171.13;;;-144.79;100.00
19827;BME280;10074;52.018;4.726;2023-05-25T00:37:14;46183.16;;;-144.79;100.00
19827;BME280;10074;52.018;4.726;2023-05-25T00:42:14;46193.19;;;-144.79;100.00
19827;BME280;10074;52.018;4.726;2023-05-25T00:47:15;46171.13;;;-144.79;100.00
19827;BME280;10074;52.018;4.726;2023-05-25T00:52:17;46169.13;;;-144.79;100.00
19827;BME280;10074;52.018;4.726;2023-05-25T00:57:19;46181.16;;;-144.79;100.00
19827;BME280;10074;52.018;4.726;2023-05-25T01:02:22;46181.16;;;-144.79;100.00
19827;BME280;10074;52.018;4.726;2023-05-25T01:07:23;46189.19;;;-144.79;100.00
19827;BME280;10074;52.018;4.726;2023-05-25T01:12:29;46173.13;;;-144.79;100.00
19827;BME280;10074;52.018;4.726;2023-05-25T01:17:31;46167.13;;;-144.79;100.00
19827;BME280;10074;52.018;4.726;2023-05-25T01:22:56;46187.19;;;-144.79;100.00
19827;BME280;10074;52.018;4.726;2023-05-25T01:28:00;46193.19;;;-144.79;100.00
19827;BME280;10074;52.018;4.726;2023-05-25T01:33:03;46195.19;;;-144.79;100.00
19827;BME280;10074;52.018;4.726;2023-05-25T01:38:04;46171.13;;;-144.79;100.00
19827;BME280;10074;52.018;4.726;2023-05-25T01:43:05;46167.13;;;-144.79;100.00
19827;BME280;10074;52.018;4.726;2023-05-25T01:48:13;46167.13;;;-144.79;100.00
19827;BME280;10074;52.018;4.726;2023-05-25T01:53:34;46183.16;;;-144.79;100.00
19827;BME280;10074;52.018;4.726;2023-05-25T01:58:43;46177.16;;;-144.79;100.00
19827;BME280;10074;52.018;4.726;2023-05-25T02:03:46;46191.19;;;-144.79;100.00
19827;BME280;10074;52.018;4.726;2023-05-25T02:08:47;46191.19;;;-144.79;100.00
19827;BME280;10074;52.018;4.726;2023-05-25T02:13:48;46181.16;;;-144.79;100.00
19827;BME280;10074;52.018;4.726;2023-05-25T02:18:48;46187.19;;;-144.79;100.00
19827;BME280;10074;52.018;4.726;2023-05-25T02:23:50;46189.19;;;-144.79;100.00
19827;BME280;10074;52.018;4.726;2023-05-25T02:28:51;46177.16;;;-144.79;100.00
19827;BME280;10074;52.018;4.726;2023-05-25T02:33:51;46177.16;;;-144.79;100.00
19827;BME280;10074;52.018;4.726;2023-05-25T02:38:51;46187.19;;;-144.79;100.00
19827;BME280;10074;52.018;4.726;2023-05-25T02:43:52;46203.22;;;-144.79;100.00
19827;BME280;10074;52.018;4.726;2023-05-25T02:48:52;46187.19;;;-144.79;100.00
19827;BME280;10074;52.018;4.726;2023-05-25T02:53:53;46193.19;;;-144.79;100.00
19827;BME280;10074;52.018;4.726;2023-05-25T02:58:53;46193.19;;;-144.79;100.00
19827;BME280;10074;52.018;4.726;2023-05-25T03:03:53;46171.13;;;-144.79;100.00
19827;BME280;10074;52.018;4.726;2023-05-25T03:08:54;46187.19;;;-144.79;100.00
19827;BME280;10074;52.018;4.726;2023-05-25T03:13:54;46183.16;;;-144.79;100.00
19827;BME280;10074;52.018;4.726;2023-05-25T03:18:55;46193.19;;;-144.79;100.00
19827;BME280;10074;52.018;4.726;2023-05-25T03:23:55;46197.19;;;-144.79;100.00
19827;BME280;10074;52.018;4.726;2023-05-25T03:28:56;46187.19;;;-144.79;100.00
19827;BME280;10074;52.018;4.726;2023-05-25T03:33:56;46191.19;;;-144.79;100.00
19827;BME280;10074;52.018;4.726;2023-05-25T03:38:57;46169.13;;;-144.79;100.00
19827;BME280;10074;52.018;4.726;2023-05-25T03:43:57;46191.19;;;-144.79;100.00
19827;BME280;10074;52.018;4.726;2023-05-25T03:48:57;46189.19;;;-144.79;100.00
19827;BME280;10074;52.018;4.726;2023-05-25T03:53:58;46205.22;;;-144.79;100.00
19827;BME280;10074;52.018;4.726;2023-05-25T03:58:59;46187.19;;;-144.79;100.00
19827;BME280;10074;52.018;4.726;2023-05-25T04:04:00;46191.19;;;-144.79;100.00
19827;BME280;10074;52.018;4.726;2023-05-25T04:09:00;46193.19;;;-144.79;100.00
19827;BME280;10074;52.018;4.726;2023-05-25T04:14:01;46189.19;;;-144.79;100.00
19827;BME280;10074;52.018;4.726;2023-05-25T04:19:01;46179.16;;;-144.79;100.00
19827;BME280;10074;52.018;4.726;2023-05-25T04:24:02;46191.19;;;-144.79;100.00
19827;BME280;10074;52.018;4.726;2023-05-25T04:29:02;46195.19;;;-144.79;100.00
19827;BME280;10074;52.018;4.726;2023-05-25T04:34:03;46195.19;;;-144.79;100.00
19827;BME280;10074;52.018;4.726;2023-05-25T04:39:04;46189.19;;;-144.79;100.00
19827;BME280;10074;52.018;4.726;2023-05-25T04:44:06;46177.16;;;-144.79;100.00
19827;BME280;10074;52.018;4.726;2023-05-25T04:49:07;46201.22;;;-144.79;100.00
19827;BME280;10074;52.018;4.726;2023-05-25T04:54:07;46191.19;;;-144.79;100.00
19827;BME280;10074;52.018;4.726;2023-05-25T04:59:07;46191.19;;;-144.79;100.00
19827;BME280;10074;52.018;4.726;2023-05-25T05:04:08;46207.22;;;-144.79;100.00
19827;BME280;10074;52.018;4.726;2023-05-25T05:09:08;46163.13;;;-144.79;100.00
19827;BME280;10074;52.018;4.726;2023-05-25T05:14:08;46191.19;;;-144.79;100.00
19827;BME280;10074;52.018;4.726;2023-05-25T05:19:08;46203.22;;;-144.79;100.00
19827;BME280;10074;52.018;4.726;2023-05-25T05:24:09;46199.19;;;-144.79;100.00
19827;BME280;10074;52.018;4.726;2023-05-25T05:29:09;46195.19;;;-144.79;100.00
19827;BME280;10074;52.018;4.726;2023-05-25T05:34:09;46205.22;;;-144.79;100.00
19827;BME280;10074;52.018;4.726;2023-05-25T05:39:10;46207.22;;;-144.79;100.00
19827;BME280;10074;52.018;4.726;2023-05-25T05:44:10;46205.22;;;-144.79;100.00
19827;BME280;10074;52.018;4.726;2023-05-25T05:49:13;46211.22;;;-144.79;100.00
19827;BME280;10074;52.018;4.726;2023-05-25T05:54:13;46195.19;;;-144.79;100.00
19827;BME280;10074;52.018;4.726;2023-05-25T05:59:14;46193.19;;;-144.79;100.00
19827;BME280;10074;52.018;4.726;2023-05-25T06:04:14;46199.19;;;-144.79;100.00
19827;BME280;10074;52.018;4.726;2023-05-25T06:09:15;46195.19;;;-144.79;100.00
19827;BME280;10074;52.018;4.726;2023-05-25T06:14:15;46201.22;;;-144.79;100.00
19827;BME280;10074;52.018;4.726;2023-05-25T06:19:15;46191.19;;;-144.79;100.00
19827;BME280;10074;52.018;4.726;2023-05-25T06:24:15;46195.19;;;-144.79;100.00
19827;BME280;10074;52.018;4.726;2023-05-25T06:29:16;46211.22;;;-144.79;100.00
19827;BME280;10074;52.018;4.726;2023-05-25T06:34:16;46205.22;;;-144.79;100.00
19827;BME280;10074;52.018;4.726;2023-05-25T06:39:17;46203.22;;;-144.79;100.00
19827;BME280;10074;52.018;4.726;2023-05-25T06:44:17;46195.19;;;-144.79;100.00
19827;BME280;10074;52.018;4.726;2023-05-25T06:49:17;46199.19;;;-144.79;100.00
19827;BME280;10074;52.018;4.726;2023-05-25T06:54:18;46199.19;;;-144.79;100.00
19827;BME280;10074;52.018;4.726;2023-05-25T06:59:18;46207.22;;;-144.79;100.00
19827;BME280;10074;52.018;4.726;2023-05-25T07:04:19;46203.22;;;-144.79;100.00
19827;BME280;10074;52.018;4.726;2023-05-25T07:09:20;46211.22;;;-144.79;100.00
19827;BME280;10074;52.018;4.726;2023-05-25T07:14:21;46215.25;;;-144.79;100.00
19827;BME280;10074;52.018;4.726;2023-05-25T07:19:21;46207.22;;;-144.79;100.00
19827;BME280;10074;52.018;4.726;2023-05-25T07:24:21;46209.22;;;-144.79;100.00
19827;BME280;10074;52.018;4.726;2023-05-25T07:29:22;46207.22;;;-144.79;100.00
19827;BME280;10074;52.018;4.726;2023-05-25T07:34:23;46203.22;;;-144.79;100.00
19827;BME280;10074;52.018;4.726;2023-05-25T07:39:24;46199.19;;;-144.79;100.00
19827;BME280;10074;52.018;4.726;2023-05-25T07:44:24;46197.19;;;-144.79;100.00
19827;BME280;10074;52.018;4.726;2023-05-25T07:49:24;46199.19;;;-144.79;100.00
19827;BME280;10074;52.018;4.726;2023-05-25T07:54:24;46211.22;;;-144.79;100.00
19827;BME280;10074;52.018;4.726;2023-05-25T07:59:25;46203.22;;;-144.79;100.00
19827;BME280;10074;52.018;4.726;2023-05-25T08:04:25;46201.22;;;-144.79;100.00
19827;BME280;10074;52.018;4.726;2023-05-25T08:09:25;46213.25;;;-144.79;100.00
19827;BME280;10074;52.018;4.726;2023-05-25T08:14:26;46223.25;;;-144.79;100.00
19827;BME280;10074;52.018;4.726;2023-05-25T08:19:27;46219.25;;;-144.79;100.00
19827;BME280;10074;52.018;4.726;2023-05-25T08:24:30;46237.31;;;-144.79;100.00
19827;BME280;10074;52.018;4.726;2023-05-25T08:29:30;46241.31;;;-144.79;100.00
19827;BME280;10074;52.018;4.726;2023-05-25T08:34:30;46247.31;;;-144.79;100.00
19827;BME280;10074;52.018;4.726;2023-05-25T08:39:30;46249.34;;;-144.79;100.00
19827;BME280;10074;52.018;4.726;2023-05-25T08:44:31;46247.31;;;-144.79;100.00
19827;BME280;10074;52.018;4.726;2023-05-25T08:49:35;46233.28;;;-144.79;100.00
19827;BME280;10074;52.018;4.726;2023-05-25T08:54:37;46239.31;;;-144.79;100.00
19827;BME280;10074;52.018;4.726;2023-05-25T09:00:02;46235.28;;;-144.79;100.00
19827;BME280;10074;52.018;4.726;2023-05-25T09:05:04;46247.31;;;-144.79;100.00
19827;BME280;10074;52.018;4.726;2023-05-25T09:10:06;46233.28;;;-144.79;100.00
19827;BME280;10074;52.018;4.726;2023-05-25T09:15:10;46237.31;;;-144.79;100.00
19827;BME280;10074;52.018;4.726;2023-05-25T09:20:11;46229.28;;;-144.79;100.00
19827;BME280;10074;52.018;4.726;2023-05-25T09:25:16;46217.25;;;-144.79;100.00
19827;BME280;10074;52.018;4.726;2023-05-25T09:30:19;46227.28;;;-144.79;100.00
19827;BME280;10074;52.018;4.726;2023-05-25T09:35:19;46209.22;;;-144.79;100.00
19827;BME280;10074;52.018;4.726;2023-05-25T09:40:22;46215.25;;;-144.79;100.00
19827;BME280;10074;52.018;4.726;2023-05-25T09:45:22;46215.25;;;-144.79;100.00
19827;BME280;10074;52.018;4.726;2023-05-25T09:50:22;46219.25;;;-144.79;100.00
19827;BME280;10074;52.018;4.726;2023-05-25T09:55:23;46207.22;;;-144.79;100.00
19827;BME280;10074;52.018;4.726;2023-05-25T10:00:24;46195.19;;;-144.79;100.00
19827;BME280;10074;52.018;4.726;2023-05-25T10:05:24;46199.19;;;-144.79;100.00
19827;BME280;10074;52.018;4.726;2023-05-25T10:10:25;46199.19;;;-144.79;100.00
19827;BME280;10074;52.018;4.726;2023-05-25T10:15:26;46193.19;;;-144.79;100.00
19827;BME280;10074;52.018;4.726;2023-05-25T10:20:26;46195.19;;;-144.79;100.00
19827;BME280;10074;52.018;4.726;2023-05-25T10:25:43;46187.19;;;-144.79;100.00
19827;BME280;10074;52.018;4.726;2023-05-25T10:30:44;46191.19;;;-144.79;100.00
19827;BME280;10074;52.018;4.726;2023-05-25T10:35:45;46191.19;;;-144.79;100.00
19827;BME280;10074;52.018;4.726;2023-05-25T10:40:45;46183.16;;;-144.79;100.00
19827;BME280;10074;52.018;4.726;2023-05-25T10:45:50;46195.19;;;-144.79;100.00
19827;BME280;10074;52.018;4.726;2023-05-25T10:50:50;46191.19;;;-144.79;100.00
19827;BME280;10074;52.018;4.726;2023-05-25T11:01:08;46169.13;;;-144.79;100.00
19827;BME280;10074;52.018;4.726;2023-05-25T11:06:10;46169.13;;;-144.79;100.00
19827;BME280;10074;52.018;4.726;2023-05-25T11:11:10;46171.13;;;-144.79;100.00
19827;BME280;10074;52.018;4.726;2023-05-25T11:26:32;46195.19;;;-144.79;100.00
19827;BME280;10074;52.018;4.726;2023-05-25T11:31:33;46161.09;;;-144.79;100.00
19827;BME280;10074;52.018;4.726;2023-05-25T11:36:35;46169.13;;;-144.79;100.00
19827;BME280;10074;52.018;4.726;2023-05-25T11:41:36;46167.13;;;-144.79;100.00
19827;BME280;10074;52.018;4.726;2023-05-25T11:46:37;46161.09;;;-144.79;100.00
19827;BME280;10074;52.018;4.726;2023-05-25T11:51:37;46159.09;;;-144.79;100.00
19827;BME280;10074;52.018;4.726;2023-05-25T11:56:38;46189.19;;;-144.79;100.00
19827;BME280;10074;52.018;4.726;2023-05-25T12:01:38;46173.13;;;-144.79;100.00
19827;BME280;10074;52.018;4.726;2023-05-25T12:06:38;46171.13;;;-144.79;100.00
19827;BME280;10074;52.018;4.726;2023-05-25T12:11:39;46169.13;;;-144.79;100.00
19827;BME280;10074;52.018;4.726;2023-05-25T12:16:44;46155.09;;;-144.79;100.00
19827;BME280;10074;52.018;4.726;2023-05-25T12:21:45;46169.13;;;-144.79;100.00
19827;BME280;10074;52.018;4.726;2023-05-25T12:26:48;46171.13;;;-144.79;100.00
19827;BME280;10074;52.018;4.726;2023-05-25T12:31:49;46185.16;;;-144.79;100.00
19827;BME280;10074;52.018;4.726;2023-05-25T12:36:51;46157.09;;;-144.79;100.00
19827;BME280;10074;52.018;4.726;2023-05-25T12:41:52;46161.09;;;-144.79;100.00
19827;BME280;10074;52.018;4.726;2023-05-25T12:46:54;46165.13;;;-144.79;100.00
19827;BME280;10074;52.018;4.726;2023-05-25T12:51:55;46167.13;;;-144.79;100.00
19827;BME280;10074;52.018;4.726;2023-05-25T12:56:55;46147.06;;;-144.79;100.00
19827;BME280;10074;52.018;4.726;2023-05-25T13:01:56;46159.09;;;-144.79;100.00
19827;BME280;10074;52.018;4.726;2023-05-25T13:06:56;46159.09;;;-144.79;100.00
19827;BME280;10074;52.018;4.726;2023-05-25T13:11:58;46163.13;;;-144.79;100.00
19827;BME280;10074;52.018;4.726;2023-05-25T13:16:58;46191.19;;;-144.79;100.00
19827;BME280;10074;52.018;4.726;2023-05-25T13:21:58;46183.16;;;-144.79;100.00
19827;BME280;10074;52.018;4.726;2023-05-25T13:26:59;46193.19;;;-144.79;100.00
19827;BME280;10074;52.018;4.726;2023-05-25T13:32:00;46203.22;;;-144.79;100.00
19827;BME280;10074;52.018;4.726;2023-05-25T13:37:00;46181.16;;;-144.79;100.00
19827;BME280;10074;52.018;4.726;2023-05-25T13:42:00;46185.16;;;-144.79;100.00
19827;BME280;10074;52.018;4.726;2023-05-25T13:47:01;46195.19;;;-144.79;100.00
19827;BME280;10074;52.018;4.726;2023-05-25T13:52:01;46187.19;;;-144.79;100.00
19827;BME280;10074;52.018;4.726;2023-05-25T13:57:01;46181.16;;;-144.79;100.00
19827;BME280;10074;52.018;4.726;2023-05-25T14:02:02;46151.09;;;-144.79;100.00
19827;BME280;10074;52.018;4.726;2023-05-25T14:07:03;46167.13;;;-144.79;100.00
19827;BME280;10074;52.018;4.726;2023-05-25T14:12:03;46185.16;;;-144.79;100.00
19827;BME280;10074;52.018;4.726;2023-05-25T14:17:04;46165.13;;;-144.79;100.00
19827;BME280;10074;52.018;4.726;2023-05-25T14:22:04;46161.09;;;-144.79;100.00
19827;BME280;10074;52.018;4.726;2023-05-25T14:27:05;46155.09;;;-144.79;100.00
19827;BME280;10074;52.018;4.726;2023-05-25T14:32:08;46151.09;;;-144.79;100.00
19827;BME280;10074;52.018;4.726;2023-05-25T14:37:08;46135.03;;;-144.79;100.00
19827;BME280;10074;52.018;4.726;2023-05-25T14:42:10;46141.06;;;-144.79;100.00
19827;BME280;10074;52.018;4.726;2023-05-25T14:47:10;46135.03;;;-144.79;100.00
19827;BME280;10074;52.018;4.726;2023-05-25T14:52:10;46125.03;;;-144.79;100.00
19827;BME280;10074;52.018;4.726;2023-05-25T14:57:10;46145.06;;;-144.79;100.00
19827;BME280;10074;52.018;4.726;2023-05-25T15:02:11;46129.03;;;-144.79;100.00
19827;BME280;10074;52.018;4.726;2023-05-25T15:07:11;46119.00;;;-144.79;100.00
19827;BME280;10074;52.018;4.726;2023-05-25T15:12:13;46113.00;;;-144.79;100.00
19827;BME280;10074;52.018;4.726;2023-05-25T15:17:14;46137.06;;;-144.79;100.00
19827;BME280;10074;52.018;4.726;2023-05-25T15:22:14;46147.06;;;-144.79;100.00
19827;BME280;10074;52.018;4.726;2023-05-25T15:27:14;46098.97;;;-144.79;100.00
19827;BME280;10074;52.018;4.726;2023-05-25T15:32:15;46153.09;;;-144.79;100.00
19827;BME280;10074;52.018;4.726;2023-05-25T15:37:16;46123.00;;;-144.79;100.00
19827;BME280;10074;52.018;4.726;2023-05-25T15:42:17;46121.00;;;-144.79;100.00
19827;BME280;10074;52.018;4.726;2023-05-25T15:47:17;46183.16;;;-144.79;100.00
19827;BME280;10074;52.018;4.726;2023-05-25T15:52:17;46171.13;;;-144.79;100.00
19827;BME280;10074;52.018;4.726;2023-05-25T15:57:18;46199.19;;;-144.79;100.00
19827;BME280;10074;52.018;4.726;2023-05-25T16:02:18;46187.19;;;-144.79;100.00
19827;BME280;10074;52.018;4.726;2023-05-25T16:07:18;46219.25;;;-144.79;98.56
19827;BME280;10074;52.018;4.726;2023-05-25T16:12:18;46225.28;;;-144.79;98.86
19827;BME280;10074;52.018;4.726;2023-05-25T16:17:21;46275.41;;;-144.79;98.78
19827;BME280;10074;52.018;4.726;2023-05-25T16:22:21;46261.34;;;-144.79;97.83
19827;BME280;10074;52.018;4.726;2023-05-25T16:27:22;46327.53;;;-144.79;95.83
19827;BME280;10074;52.018;4.726;2023-05-25T16:32:22;46371.63;;;-144.79;95.30
19827;BME280;10074;52.018;4.726;2023-05-25T16:37:22;46407.72;;;-144.79;94.62
19827;BME280;10074;52.018;4.726;2023-05-25T16:42:23;46437.81;;;-144.79;94.21
19827;BME280;10074;52.018;4.726;2023-05-25T16:47:25;46391.69;;;-144.79;94.56
19827;BME280;10074;52.018;4.726;2023-05-25T16:52:25;46407.72;;;-144.79;94.62
19827;BME280;10074;52.018;4.726;2023-05-25T16:57:25;46411.75;;;-144.79;94.96
19827;BME280;10074;52.018;4.726;2023-05-25T17:02:26;46369.63;;;-144.79;95.52
19827;BME280;10074;52.018;4.726;2023-05-25T17:07:26;46345.56;;;-144.79;95.64
19827;BME280;10074;52.018;4.726;2023-05-25T17:12:27;46353.59;;;-144.79;95.96
19827;BME280;10074;52.018;4.726;2023-05-25T17:17:28;46315.50;;;-144.79;96.48
19827;BME280;10074;52.018;4.726;2023-05-25T17:22:28;46297.44;;;-144.79;97.23
19827;BME280;10074;52.018;4.726;2023-05-25T17:27:28;46287.44;;;-144.79;97.48
19827;BME280;10074;52.018;4.726;2023-05-25T17:32:29;46259.34;;;-144.79;97.45
19827;BME280;10074;52.018;4.726;2023-05-25T17:37:29;46279.41;;;-144.79;97.88
19827;BME280;10074;52.018;4.726;2023-05-25T17:42:30;46267.38;;;-144.79;97.76
19827;BME280;10074;52.018;4.726;2023-05-25T17:47:30;46269.38;;;-144.79;97.99
19827;BME280;10074;52.018;4.726;2023-05-25T17:52:30;46241.31;;;-144.79;98.43
19827;BME280;10074;52.018;4.726;2023-05-25T17:57:31;46227.28;;;-144.79;98.89
19827;BME280;10074;52.018;4.726;2023-05-25T18:02:31;46239.31;;;-144.79;99.32
19827;BME280;10074;52.018;4.726;2023-05-25T18:07:33;46225.28;;;-144.79;99.69
19827;BME280;10074;52.018;4.726;2023-05-25T18:12:33;46215.25;;;-144.79;99.96
19827;BME280;10074;52.018;4.726;2023-05-25T18:17:33;46227.28;;;-144.79;99.74
19827;BME280;10074;52.018;4.726;2023-05-25T18:22:33;46207.22;;;-144.79;99.87
19827;BME280;10074;52.018;4.726;2023-05-25T18:27:34;46207.22;;;-144.79;100.00
19827;BME280;10074;52.018;4.726;2023-05-25T18:32:34;46185.16;;;-144.79;100.00
19827;BME280;10074;52.018;4.726;2023-05-25T18:37:34;46229.28;;;-144.79;100.00
19827;BME280;10074;52.018;4.726;2023-05-25T18:42:35;46207.22;;;-144.79;100.00
19827;BME280;10074;52.018;4.726;2023-05-25T18:47:35;46193.19;;;-144.79;100.00
19827;BME280;10074;52.018;4.726;2023-05-25T18:52:36;46167.13;;;-144.79;100.00
19827;BME280;10074;52.018;4.726;2023-05-25T18:57:36;46187.19;;;-144.79;100.00
19827;BME280;10074;52.018;4.726;2023-05-25T19:02:36;46187.19;;;-144.79;100.00
19827;BME280;10074;52.018;4.726;2023-05-25T19:07:37;46165.13;;;-144.79;100.00
19827;BME280;10074;52.018;4.726;2023-05-25T19:12:42;46169.13;;;-144.79;100.00
19827;BME280;10074;52.018;4.726;2023-05-25T19:17:43;46199.19;;;-144.79;100.00
19827;BME280;10074;52.018;4.726;2023-05-25T19:22:45;46135.03;;;-144.79;100.00
19827;BME280;10074;52.018;4.726;2023-05-25T19:27:45;46155.09;;;-144.79;100.00
19827;BME280;10074;52.018;4.726;2023-05-25T19:32:46;46163.13;;;-144.79;100.00
19827;BME280;10074;52.018;4.726;2023-05-25T19:37:46;46175.16;;;-144.79;100.00
19827;BME280;10074;52.018;4.726;2023-05-25T19:42:46;46143.06;;;-144.79;100.00
19827;BME280;10074;52.018;4.726;2023-05-25T19:47:47;46157.09;;;-144.79;100.00
19827;BME280;10074;52.018;4.726;2023-05-25T19:52:47;46149.06;;;-144.79;100.00
19827;BME280;10074;52.018;4.726;2023-05-25T19:57:47;46153.09;;;-144.79;100.00
19827;BME280;10074;52.018;4.726;2023-05-25T20:02:48;46175.16;;;-144.79;100.00
19827;BME280;10074;52.018;4.726;2023-05-25T20:07:49;46175.16;;;-144.79;100.00
19827;BME280;10074;52.018;4.726;2023-05-25T20:12:51;46165.13;;;-144.79;100.00
19827;BME280;10074;52.018;4.726;2023-05-25T20:17:51;46159.09;;;-144.79;100.00
19827;BME280;10074;52.018;4.726;2023-05-25T20:22:51;46173.13;;;-144.79;100.00
19827;BME280;10074;52.018;4.726;2023-05-25T20:27:52;46163.13;;;-144.79;100.00
19827;BME280;10074;52.018;4.726;2023-05-25T20:32:52;46149.06;;;-144.79;100.00
19827;BME280;10074;52.018;4.726;2023-05-25T20:37:52;46177.16;;;-144.79;100.00
19827;BME280;10074;52.018;4.726;2023-05-25T20:42:53;46175.16;;;-144.79;100.00
19827;BME280;10074;52.018;4.726;2023-05-25T20:48:00;46159.09;;;-144.79;100.00
19827;BME280;10074;52.018;4.726;2023-05-25T20:53:01;46163.13;;;-144.79;100.00
19827;BME280;10074;52.018;4.726;2023-05-25T20:58:01;46143.06;;;-144.79;100.00
19827;BME280;10074;52.018;4.726;2023-05-25T21:03:01;46185.16;;;-144.79;100.00
19827;BME280;10074;52.018;4.726;2023-05-25T21:08:03;46147.06;;;-144.79;100.00
19827;BME280;10074;52.018;4.726;2023-05-25T21:13:04;46147.06;;;-144.79;100.00
19827;BME280;10074;52.018;4.726;2023-05-25T21:18:04;46159.09;;;-144.79;100.00
19827;BME280;10074;52.018;4.726;2023-05-25T21:23:06;46143.06;;;-144.79;100.00
19827;BME280;10074;52.018;4.726;2023-05-25T21:28:06;46129.03;;;-144.79;100.00
19827;BME280;10074;52.018;4.726;2023-05-25T21:33:08;46171.13;;;-144.79;100.00
19827;BME280;10074;52.018;4.726;2023-05-25T21:38:08;46115.00;;;-144.79;100.00
19827;BME280;10074;52.018;4.726;2023-05-25T21:43:09;46151.09;;;-144.79;100.00
19827;BME280;10074;52.018;4.726;2023-05-25T21:48:09;46123.00;;;-144.79;100.00
19827;BME280;10074;52.018;4.726;2023-05-25T21:53:09;46159.09;;;-144.79;100.00
19827;BME280;10074;52.018;4.726;2023-05-25T21:58:14;46135.03;;;-144.79;100.00
19827;BME280;10074;52.018;4.726;2023-05-25T22:03:15;46145.06;;;-144.79;100.00
19827;BME280;10074;52.018;4.726;2023-05-25T22:08:15;46133.03;;;-144.79;100.00
19827;BME280;10074;52.018;4.726;2023-05-25T22:13:16;46139.06;;;-144.79;100.00
19827;BME280;10074;52.018;4.726;2023-05-25T22:18:16;46133.03;;;-144.79;100.00
19827;BME280;10074;52.018;4.726;2023-05-25T22:23:16;46139.06;;;-144.79;100.00
19827;BME280;10074;52.018;4.726;2023-05-25T22:28:17;46127.03;;;-144.79;100.00
19827;BME280;10074;52.018;4.726;2023-05-25T22:33:17;46131.03;;;-144.79;100.00
19827;BME280;10074;52.018;4.726;2023-05-25T22:38:17;46135.03;;;-144.79;100.00
19827;BME280;10074;52.018;4.726;2023-05-25T22:43:18;46139.06;;;-144.79;100.00
19827;BME280;10074;52.018;4.726;2023-05-25T22:48:18;46121.00;;;-144.79;100.00
19827;BME280;10074;52.018;4.726;2023-05-25T22:53:18;46104.97;;;-144.79;100.00
19827;BME280;10074;52.018;4.726;2023-05-25T22:58:19;46155.09;;;-144.79;100.00
19827;BME280;10074;52.018;4.726;2023-05-25T23:03:19;46151.09;;;-144.79;100.00
19827;BME280;10074;52.018;4.726;2023-05-25T23:08:19;46137.06;;;-144.79;100.00
19827;BME280;10074;52.018;4.726;2023-05-25T23:13:20;46149.06;;;-144.79;100.00
19827;BME280;10074;52.018;4.726;2023-05-25T23:18:23;46145.06;;;-144.79;100.00
19827;BME280;10074;52.018;4.726;2023-05-25T23:23:23;46139.06;;;-144.79;100.00
19827;BME280;10074;52.018;4.726;2023-05-25T23:28:24;46143.06;;;-144.79;100.00
19827;BME280;10074;52.018;4.726;2023-05-25T23:33:24;46143.06;;;-144.79;100.00
19827;BME280;10074;52.018;4.726;2023-05-25T23:38:24;46145.06;;;-144.79;100.00
19827;BME280;10074;52.018;4.726;2023-05-25T23:43:25;46147.06;;;-144.79;100.00
19827;BME280;10074;52.018;4.726;2023-05-25T23:48:25;46115.00;;;-144.79;100.00
19827;BME280;10074;52.018;4.726;2023-05-25T23:53:26;46161.09;;;-144.79;100.00
19827;BME280;10074;52.018;4.726;2023-05-25T23:58:26;46149.06;;;-144.79;100.00
